Medicine Hat Airport
CYXH : rendu visible

Aérodrome :











RETROUVEZ-NOUS SUR...

 
LOGIN :

S'inscrire | Disclaimer

   EN    FR    IT 

 









Légende :    VFR   VFR Marginal   IFR   IFR Intensif   IFR Très Intensif
Visi : 
Plafond : 
>= 8 km
>= 3000ft
5 à 8 km
1000 à 3000 ft
1500m à 5 km
500 à 1000 ft
800 à 1500m
200 à 500 ft
< 800m
< 200 ft
Symboles :   Orages  Brouillard  Fortes neiges  Fortes précipitations  Vent > 20 kt






- Altitude de l'aérodrome : 2352 ft
- Code IATA : YXH


CYXH - Medicine Hat

DERNIER METAR :
  • 222300Z 25009KT 30SM SKC 04/M01 A2989 RMK SLP150

METARs EXPIRÉS :
  • 222200Z 26010KT 30SM FEW220 04/M01 A2989 RMK CI1 CI TR SLP153
  • 222100Z 25009KT 30SM FEW220 04/M01 A2988 RMK CI1 CI TR SLP148

TAF TAF CYXH
Valide du 22 à 18h jusqu'au 23 à 06h UTC


221740Z 2218/2306 22015G25KT P6SM SKC RMK NXT FCST BY 230000Z



MET'MAP, la Météo Aéronautique d'un coup d'oeil ! - Copyright ORBIFLY Décembre 2007 - Disclaimer

ORBIFLY MET'MAP TEAM :

Programmation & Développement : Alexandra Zaïnal
Conception & Développement : Baudouin d'Aumeries
Co-Programmation & Développement : Marc-Olivier Méhu
Soutien technique & logistique : Manuel Goepfert

Contact : metmap@orbifly.com




SOURCES & CREDITS :

   NOAA       Earth
Advisory